Portada
METAR-TAF:

METAR-TAF

Aeroports :

Johor Bahru, Malàisia

latitud: 01-38N, longitud: 103-40E, altitud: 37 m

Observació

L'informe es va fer fa 41 minuts, a les 20:00 UTC
Vent calma
Temperatura 25°C
Humitat 94%
Pressió 1007 hPa
Visibilitat: 9000 m
Escasses núvols a una alçada de 1000 ft

METAR: WMKJ 052000Z 00000KT 9000 FEW010 25/24 Q1007

Hora: 04:41 (20:41 UTC)

Pronòstic

L'informe es va fer fa 3 hores i 41 minuts, a les 17:00 UTC
Pronòstic vàlid del 05 a les 18 UTC al 06 a les 18 UTC
Vent 3 kt amb direcció variable
Visibilitat 10 km o més
Escasses núvols a una alçada de 2200 ft
Temporalment
l' 06 a les 05 UTC al 06 a les 11 UTC
Vent 10 kt del Est/Nord-Est
Visibilitat: 4000 m
Escasses núvols a una alçada de 1600 ft, Cumulonimbus.
Núvols disperses a una alçada de 1800 ft
tempesta, pluja

TAF: WMKJ 051700Z 0518/0618 VRB03KT 9999 FEW022 TEMPO 0605/0611 06010KT 4000 TSRA FEW016CB SCT018

Observacions i pronòstics meteorològics de més de 4000 aeroports (METAR i TAF).

Les estacions disponibles són els punts grocs i vermells al mapa.

Posi el ratolí al punt desitjat per veure el nom de l'estació.

Feu clic per veure les observacions i els pronòstics meteorològics.

Per canviar el mapa: feu clic els botons verds amb una creu de color negre per apropar; al botó verd amb un guió per allunyar la imatge; o en les fletxes verdes per a mapes adjacents.


METAR-TAF: